sensor_id;sensor_type;location;lat;lon;timestamp;P1;durP1;ratioP1;P2;durP2;ratioP2
45694;SDS011;31408;45.468;9.124;2023-05-20T00:00:05;18.95;;;9.30;;
45694;SDS011;31408;45.468;9.124;2023-05-20T00:02:31;18.75;;;8.30;;
45694;SDS011;31408;45.468;9.124;2023-05-20T00:04:57;17.60;;;8.88;;
45694;SDS011;31408;45.468;9.124;2023-05-20T00:07:22;17.35;;;7.97;;
45694;SDS011;31408;45.468;9.124;2023-05-20T00:09:48;15.93;;;8.15;;
45694;SDS011;31408;45.468;9.124;2023-05-20T00:12:14;15.73;;;8.30;;
45694;SDS011;31408;45.468;9.124;2023-05-20T00:14:39;17.23;;;8.10;;
45694;SDS011;31408;45.468;9.124;2023-05-20T00:17:04;16.55;;;8.50;;
45694;SDS011;31408;45.468;9.124;2023-05-20T00:19:30;19.52;;;8.30;;
45694;SDS011;31408;45.468;9.124;2023-05-20T00:21:56;15.20;;;8.20;;
45694;SDS011;31408;45.468;9.124;2023-05-20T00:24:22;16.13;;;8.35;;
45694;SDS011;31408;45.468;9.124;2023-05-20T00:26:48;16.13;;;7.93;;
45694;SDS011;31408;45.468;9.124;2023-05-20T00:29:14;17.90;;;8.73;;
45694;SDS011;31408;45.468;9.124;2023-05-20T00:31:39;16.73;;;8.02;;
45694;SDS011;31408;45.468;9.124;2023-05-20T00:34:04;17.58;;;8.10;;
45694;SDS011;31408;45.468;9.124;2023-05-20T00:36:30;19.38;;;7.90;;
45694;SDS011;31408;45.468;9.124;2023-05-20T00:38:55;16.83;;;8.20;;
45694;SDS011;31408;45.468;9.124;2023-05-20T00:41:26;26.73;;;10.82;;
45694;SDS011;31408;45.468;9.124;2023-05-20T00:43:52;16.65;;;9.02;;
45694;SDS011;31408;45.468;9.124;2023-05-20T00:46:18;13.85;;;7.15;;
45694;SDS011;31408;45.468;9.124;2023-05-20T00:48:44;16.00;;;7.85;;
45694;SDS011;31408;45.468;9.124;2023-05-20T00:51:13;15.52;;;7.30;;
45694;SDS011;31408;45.468;9.124;2023-05-20T00:53:38;16.50;;;8.10;;
45694;SDS011;31408;45.468;9.124;2023-05-20T00:56:04;12.73;;;7.25;;
45694;SDS011;31408;45.468;9.124;2023-05-20T00:58:30;13.68;;;7.60;;
45694;SDS011;31408;45.468;9.124;2023-05-20T01:00:56;19.48;;;8.20;;
45694;SDS011;31408;45.468;9.124;2023-05-20T01:03:22;16.13;;;7.53;;
45694;SDS011;31408;45.468;9.124;2023-05-20T01:05:47;14.40;;;7.70;;
45694;SDS011;31408;45.468;9.124;2023-05-20T01:08:13;13.93;;;6.95;;
45694;SDS011;31408;45.468;9.124;2023-05-20T01:10:40;14.10;;;7.07;;
45694;SDS011;31408;45.468;9.124;2023-05-20T01:13:13;12.85;;;6.95;;
45694;SDS011;31408;45.468;9.124;2023-05-20T01:15:40;12.77;;;7.63;;
45694;SDS011;31408;45.468;9.124;2023-05-20T01:18:08;13.20;;;7.18;;
45694;SDS011;31408;45.468;9.124;2023-05-20T01:20:35;17.02;;;7.15;;
45694;SDS011;31408;45.468;9.124;2023-05-20T01:23:01;15.38;;;7.72;;
45694;SDS011;31408;45.468;9.124;2023-05-20T01:25:28;13.05;;;6.70;;
45694;SDS011;31408;45.468;9.124;2023-05-20T01:27:54;14.60;;;6.82;;
45694;SDS011;31408;45.468;9.124;2023-05-20T01:30:21;10.18;;;6.18;;
45694;SDS011;31408;45.468;9.124;2023-05-20T01:32:51;11.88;;;6.25;;
45694;SDS011;31408;45.468;9.124;2023-05-20T01:35:19;12.85;;;5.93;;
45694;SDS011;31408;45.468;9.124;2023-05-20T01:37:45;12.38;;;5.85;;
45694;SDS011;31408;45.468;9.124;2023-05-20T01:40:12;10.00;;;6.28;;
45694;SDS011;31408;45.468;9.124;2023-05-20T01:42:40;17.48;;;6.57;;
45694;SDS011;31408;45.468;9.124;2023-05-20T01:45:06;9.63;;;5.35;;
45694;SDS011;31408;45.468;9.124;2023-05-20T01:47:32;9.07;;;5.50;;
45694;SDS011;31408;45.468;9.124;2023-05-20T01:49:57;8.52;;;4.90;;
45694;SDS011;31408;45.468;9.124;2023-05-20T01:52:23;7.25;;;4.97;;
45694;SDS011;31408;45.468;9.124;2023-05-20T01:54:48;13.43;;;5.40;;
45694;SDS011;31408;45.468;9.124;2023-05-20T01:57:22;8.30;;;4.40;;
45694;SDS011;31408;45.468;9.124;2023-05-20T01:59:49;7.95;;;4.10;;
45694;SDS011;31408;45.468;9.124;2023-05-20T02:02:15;10.68;;;4.45;;
45694;SDS011;31408;45.468;9.124;2023-05-20T02:04:44;8.07;;;4.75;;
45694;SDS011;31408;45.468;9.124;2023-05-20T02:07:16;7.60;;;4.10;;
45694;SDS011;31408;45.468;9.124;2023-05-20T02:09:46;6.13;;;3.57;;
45694;SDS011;31408;45.468;9.124;2023-05-20T02:12:11;6.10;;;3.63;;
45694;SDS011;31408;45.468;9.124;2023-05-20T02:14:45;9.18;;;4.55;;
45694;SDS011;31408;45.468;9.124;2023-05-20T02:17:11;7.15;;;3.90;;
45694;SDS011;31408;45.468;9.124;2023-05-20T02:19:40;6.15;;;3.42;;
45694;SDS011;31408;45.468;9.124;2023-05-20T02:22:06;5.97;;;3.42;;
45694;SDS011;31408;45.468;9.124;2023-05-20T02:24:32;6.28;;;3.58;;
45694;SDS011;31408;45.468;9.124;2023-05-20T02:26:57;5.65;;;2.97;;
45694;SDS011;31408;45.468;9.124;2023-05-20T02:29:23;5.55;;;3.10;;
45694;SDS011;31408;45.468;9.124;2023-05-20T02:31:49;4.38;;;3.25;;
45694;SDS011;31408;45.468;9.124;2023-05-20T02:34:16;6.43;;;3.17;;
45694;SDS011;31408;45.468;9.124;2023-05-20T02:36:42;4.15;;;2.90;;
45694;SDS011;31408;45.468;9.124;2023-05-20T02:39:08;6.32;;;2.65;;
45694;SDS011;31408;45.468;9.124;2023-05-20T02:41:34;3.85;;;2.92;;
45694;SDS011;31408;45.468;9.124;2023-05-20T02:44:01;4.68;;;2.83;;
45694;SDS011;31408;45.468;9.124;2023-05-20T02:46:27;4.43;;;3.22;;
45694;SDS011;31408;45.468;9.124;2023-05-20T02:48:52;4.18;;;2.65;;
45694;SDS011;31408;45.468;9.124;2023-05-20T02:51:17;3.88;;;2.53;;
45694;SDS011;31408;45.468;9.124;2023-05-20T02:53:43;5.35;;;3.13;;
45694;SDS011;31408;45.468;9.124;2023-05-20T02:56:09;3.08;;;2.33;;
45694;SDS011;31408;45.468;9.124;2023-05-20T02:58:35;3.63;;;2.47;;
45694;SDS011;31408;45.468;9.124;2023-05-20T03:01:01;4.88;;;2.38;;
45694;SDS011;31408;45.468;9.124;2023-05-20T03:03:27;6.13;;;2.55;;
45694;SDS011;31408;45.468;9.124;2023-05-20T03:05:53;5.72;;;2.38;;
45694;SDS011;31408;45.468;9.124;2023-05-20T03:08:19;4.22;;;2.40;;
45694;SDS011;31408;45.468;9.124;2023-05-20T03:10:45;4.07;;;2.35;;
45694;SDS011;31408;45.468;9.124;2023-05-20T03:13:11;3.22;;;1.95;;
45694;SDS011;31408;45.468;9.124;2023-05-20T03:15:39;3.58;;;1.95;;
45694;SDS011;31408;45.468;9.124;2023-05-20T03:18:05;2.83;;;2.03;;
45694;SDS011;31408;45.468;9.124;2023-05-20T03:20:33;2.42;;;1.88;;
45694;SDS011;31408;45.468;9.124;2023-05-20T03:23:02;1.80;;;1.63;;
45694;SDS011;31408;45.468;9.124;2023-05-20T03:25:29;2.35;;;1.88;;
45694;SDS011;31408;45.468;9.124;2023-05-20T03:27:55;4.28;;;2.25;;
45694;SDS011;31408;45.468;9.124;2023-05-20T03:30:22;2.33;;;1.48;;
45694;SDS011;31408;45.468;9.124;2023-05-20T03:32:48;2.90;;;1.70;;
45694;SDS011;31408;45.468;9.124;2023-05-20T03:35:14;4.45;;;2.83;;
45694;SDS011;31408;45.468;9.124;2023-05-20T03:37:39;2.22;;;1.88;;
45694;SDS011;31408;45.468;9.124;2023-05-20T03:40:07;4.50;;;2.50;;
45694;SDS011;31408;45.468;9.124;2023-05-20T03:42:35;2.88;;;1.77;;
45694;SDS011;31408;45.468;9.124;2023-05-20T03:45:01;3.55;;;1.67;;
45694;SDS011;31408;45.468;9.124;2023-05-20T03:47:31;2.05;;;1.50;;
45694;SDS011;31408;45.468;9.124;2023-05-20T03:49:56;13.52;;;2.08;;
45694;SDS011;31408;45.468;9.124;2023-05-20T03:52:22;3.70;;;2.60;;
45694;SDS011;31408;45.468;9.124;2023-05-20T03:54:47;2.80;;;1.40;;
45694;SDS011;31408;45.468;9.124;2023-05-20T03:57:13;1.35;;;1.25;;
45694;SDS011;31408;45.468;9.124;2023-05-20T03:59:38;1.42;;;1.30;;
45694;SDS011;31408;45.468;9.124;2023-05-20T04:02:04;2.03;;;1.83;;
45694;SDS011;31408;45.468;9.124;2023-05-20T04:04:30;5.28;;;2.17;;
45694;SDS011;31408;45.468;9.124;2023-05-20T04:06:57;3.13;;;1.90;;
45694;SDS011;31408;45.468;9.124;2023-05-20T04:09:25;8.43;;;2.08;;
45694;SDS011;31408;45.468;9.124;2023-05-20T04:11:51;7.15;;;1.95;;
45694;SDS011;31408;45.468;9.124;2023-05-20T04:14:16;3.08;;;2.10;;
45694;SDS011;31408;45.468;9.124;2023-05-20T04:16:42;2.05;;;1.73;;
45694;SDS011;31408;45.468;9.124;2023-05-20T04:19:08;3.25;;;1.92;;
45694;SDS011;31408;45.468;9.124;2023-05-20T04:21:35;2.47;;;2.03;;
45694;SDS011;31408;45.468;9.124;2023-05-20T04:24:00;3.92;;;1.92;;
45694;SDS011;31408;45.468;9.124;2023-05-20T04:26:25;1.50;;;1.40;;
45694;SDS011;31408;45.468;9.124;2023-05-20T04:28:51;3.20;;;1.92;;
45694;SDS011;31408;45.468;9.124;2023-05-20T04:31:16;3.15;;;1.98;;
45694;SDS011;31408;45.468;9.124;2023-05-20T04:33:42;2.38;;;1.38;;
45694;SDS011;31408;45.468;9.124;2023-05-20T04:36:09;1.52;;;1.38;;
45694;SDS011;31408;45.468;9.124;2023-05-20T04:38:36;2.63;;;1.58;;
45694;SDS011;31408;45.468;9.124;2023-05-20T04:41:02;1.65;;;1.40;;
45694;SDS011;31408;45.468;9.124;2023-05-20T04:43:28;1.60;;;1.50;;
45694;SDS011;31408;45.468;9.124;2023-05-20T04:45:57;1.92;;;1.33;;
45694;SDS011;31408;45.468;9.124;2023-05-20T04:48:30;1.38;;;1.25;;
45694;SDS011;31408;45.468;9.124;2023-05-20T04:50:56;2.65;;;1.70;;
45694;SDS011;31408;45.468;9.124;2023-05-20T04:53:22;1.48;;;1.38;;
45694;SDS011;31408;45.468;9.124;2023-05-20T04:55:47;0.82;;;0.82;;
45694;SDS011;31408;45.468;9.124;2023-05-20T04:58:22;0.95;;;0.88;;
45694;SDS011;31408;45.468;9.124;2023-05-20T05:00:51;2.05;;;1.48;;
45694;SDS011;31408;45.468;9.124;2023-05-20T05:03:17;1.60;;;1.30;;
45694;SDS011;31408;45.468;9.124;2023-05-20T05:05:42;1.25;;;1.00;;
45694;SDS011;31408;45.468;9.124;2023-05-20T05:08:08;1.73;;;1.00;;
45694;SDS011;31408;45.468;9.124;2023-05-20T05:10:39;2.90;;;1.00;;
45694;SDS011;31408;45.468;9.124;2023-05-20T05:13:05;1.17;;;1.10;;
45694;SDS011;31408;45.468;9.124;2023-05-20T05:15:31;1.00;;;0.98;;
45694;SDS011;31408;45.468;9.124;2023-05-20T05:17:57;1.25;;;1.15;;
45694;SDS011;31408;45.468;9.124;2023-05-20T05:20:22;1.58;;;1.48;;
45694;SDS011;31408;45.468;9.124;2023-05-20T05:22:48;1.88;;;1.15;;
45694;SDS011;31408;45.468;9.124;2023-05-20T05:25:15;0.95;;;0.82;;
45694;SDS011;31408;45.468;9.124;2023-05-20T05:27:40;1.98;;;1.17;;
45694;SDS011;31408;45.468;9.124;2023-05-20T05:30:07;1.20;;;1.10;;
45694;SDS011;31408;45.468;9.124;2023-05-20T05:32:33;2.22;;;1.25;;
45694;SDS011;31408;45.468;9.124;2023-05-20T05:34:59;1.10;;;1.00;;
45694;SDS011;31408;45.468;9.124;2023-05-20T05:37:26;1.80;;;1.33;;
45694;SDS011;31408;45.468;9.124;2023-05-20T05:39:51;1.83;;;1.25;;
45694;SDS011;31408;45.468;9.124;2023-05-20T05:42:17;1.35;;;1.23;;
45694;SDS011;31408;45.468;9.124;2023-05-20T05:44:42;1.65;;;0.93;;
45694;SDS011;31408;45.468;9.124;2023-05-20T05:47:09;7.93;;;1.45;;
45694;SDS011;31408;45.468;9.124;2023-05-20T05:49:34;3.40;;;1.05;;
45694;SDS011;31408;45.468;9.124;2023-05-20T05:52:00;2.00;;;1.33;;
45694;SDS011;31408;45.468;9.124;2023-05-20T05:54:27;2.10;;;1.25;;
45694;SDS011;31408;45.468;9.124;2023-05-20T05:56:53;1.65;;;1.27;;
45694;SDS011;31408;45.468;9.124;2023-05-20T05:59:21;1.35;;;1.02;;
45694;SDS011;31408;45.468;9.124;2023-05-20T06:01:47;1.65;;;1.15;;
45694;SDS011;31408;45.468;9.124;2023-05-20T06:04:13;0.88;;;0.88;;
45694;SDS011;31408;45.468;9.124;2023-05-20T06:06:39;1.83;;;1.60;;
45694;SDS011;31408;45.468;9.124;2023-05-20T06:09:05;1.67;;;1.10;;
45694;SDS011;31408;45.468;9.124;2023-05-20T06:11:31;1.13;;;1.10;;
45694;SDS011;31408;45.468;9.124;2023-05-20T06:13:56;3.17;;;1.00;;
45694;SDS011;31408;45.468;9.124;2023-05-20T06:16:23;1.20;;;1.10;;
45694;SDS011;31408;45.468;9.124;2023-05-20T06:18:50;1.40;;;1.10;;
45694;SDS011;31408;45.468;9.124;2023-05-20T06:21:16;2.25;;;1.17;;
45694;SDS011;31408;45.468;9.124;2023-05-20T06:23:41;1.15;;;0.90;;
45694;SDS011;31408;45.468;9.124;2023-05-20T06:26:09;1.58;;;0.98;;
45694;SDS011;31408;45.468;9.124;2023-05-20T06:28:34;2.03;;;1.33;;
45694;SDS011;31408;45.468;9.124;2023-05-20T06:31:01;1.30;;;1.10;;
45694;SDS011;31408;45.468;9.124;2023-05-20T06:33:30;0.70;;;0.60;;
45694;SDS011;31408;45.468;9.124;2023-05-20T06:35:59;1.27;;;0.85;;
45694;SDS011;31408;45.468;9.124;2023-05-20T06:38:26;0.80;;;0.80;;
45694;SDS011;31408;45.468;9.124;2023-05-20T06:40:51;3.28;;;1.38;;
45694;SDS011;31408;45.468;9.124;2023-05-20T06:43:17;1.40;;;0.73;;
45694;SDS011;31408;45.468;9.124;2023-05-20T06:45:48;2.20;;;1.38;;
45694;SDS011;31408;45.468;9.124;2023-05-20T06:48:35;1.13;;;0.82;;
45694;SDS011;31408;45.468;9.124;2023-05-20T06:51:00;1.83;;;1.15;;
45694;SDS011;31408;45.468;9.124;2023-05-20T06:53:26;2.97;;;1.05;;
45694;SDS011;31408;45.468;9.124;2023-05-20T06:55:54;1.23;;;0.88;;
45694;SDS011;31408;45.468;9.124;2023-05-20T06:58:20;1.05;;;0.95;;
45694;SDS011;31408;45.468;9.124;2023-05-20T07:00:46;3.53;;;1.40;;
45694;SDS011;31408;45.468;9.124;2023-05-20T07:03:13;4.18;;;1.55;;
45694;SDS011;31408;45.468;9.124;2023-05-20T07:05:38;4.57;;;1.10;;
45694;SDS011;31408;45.468;9.124;2023-05-20T07:08:05;1.42;;;1.33;;
45694;SDS011;31408;45.468;9.124;2023-05-20T07:10:30;2.08;;;1.50;;
45694;SDS011;31408;45.468;9.124;2023-05-20T07:12:56;2.95;;;1.20;;
45694;SDS011;31408;45.468;9.124;2023-05-20T07:15:21;5.72;;;2.28;;
45694;SDS011;31408;45.468;9.124;2023-05-20T07:17:47;2.25;;;1.75;;
45694;SDS011;31408;45.468;9.124;2023-05-20T07:20:13;2.30;;;1.65;;
45694;SDS011;31408;45.468;9.124;2023-05-20T07:22:38;3.38;;;2.20;;
45694;SDS011;31408;45.468;9.124;2023-05-20T07:25:11;5.65;;;2.17;;
45694;SDS011;31408;45.468;9.124;2023-05-20T07:27:37;3.72;;;2.20;;
45694;SDS011;31408;45.468;9.124;2023-05-20T07:30:02;2.05;;;1.55;;
45694;SDS011;31408;45.468;9.124;2023-05-20T07:32:29;2.63;;;1.92;;
45694;SDS011;31408;45.468;9.124;2023-05-20T07:34:55;2.78;;;2.03;;
45694;SDS011;31408;45.468;9.124;2023-05-20T07:37:21;1.92;;;1.30;;
45694;SDS011;31408;45.468;9.124;2023-05-20T07:39:46;1.40;;;1.30;;
45694;SDS011;31408;45.468;9.124;2023-05-20T07:42:12;2.63;;;1.63;;
45694;SDS011;31408;45.468;9.124;2023-05-20T07:44:41;1.95;;;1.60;;
45694;SDS011;31408;45.468;9.124;2023-05-20T07:47:06;9.10;;;2.42;;
45694;SDS011;31408;45.468;9.124;2023-05-20T07:49:32;3.30;;;1.63;;
45694;SDS011;31408;45.468;9.124;2023-05-20T07:51:58;3.13;;;1.63;;
45694;SDS011;31408;45.468;9.124;2023-05-20T07:54:23;3.53;;;1.73;;
45694;SDS011;31408;45.468;9.124;2023-05-20T07:56:50;5.13;;;1.92;;
45694;SDS011;31408;45.468;9.124;2023-05-20T07:59:17;1.60;;;1.30;;
45694;SDS011;31408;45.468;9.124;2023-05-20T08:01:45;4.43;;;1.90;;
45694;SDS011;31408;45.468;9.124;2023-05-20T08:04:13;2.65;;;2.03;;
45694;SDS011;31408;45.468;9.124;2023-05-20T08:06:39;1.83;;;1.58;;
45694;SDS011;31408;45.468;9.124;2023-05-20T08:09:08;2.55;;;1.92;;
45694;SDS011;31408;45.468;9.124;2023-05-20T08:11:38;4.20;;;2.03;;
45694;SDS011;31408;45.468;9.124;2023-05-20T08:14:04;2.22;;;1.63;;
45694;SDS011;31408;45.468;9.124;2023-05-20T08:16:35;2.45;;;1.58;;
45694;SDS011;31408;45.468;9.124;2023-05-20T08:19:01;2.33;;;1.48;;
45694;SDS011;31408;45.468;9.124;2023-05-20T08:21:26;5.13;;;1.60;;
45694;SDS011;31408;45.468;9.124;2023-05-20T08:23:52;1.85;;;1.58;;
45694;SDS011;31408;45.468;9.124;2023-05-20T08:26:18;1.60;;;1.27;;
45694;SDS011;31408;45.468;9.124;2023-05-20T08:28:43;4.03;;;1.85;;
45694;SDS011;31408;45.468;9.124;2023-05-20T08:31:19;2.35;;;1.67;;
45694;SDS011;31408;45.468;9.124;2023-05-20T08:33:44;3.13;;;1.50;;
45694;SDS011;31408;45.468;9.124;2023-05-20T08:36:10;2.55;;;1.70;;
45694;SDS011;31408;45.468;9.124;2023-05-20T08:38:35;2.63;;;1.85;;
45694;SDS011;31408;45.468;9.124;2023-05-20T08:41:01;6.13;;;1.85;;
45694;SDS011;31408;45.468;9.124;2023-05-20T08:43:26;1.33;;;1.23;;
45694;SDS011;31408;45.468;9.124;2023-05-20T08:45:52;3.65;;;1.85;;
45694;SDS011;31408;45.468;9.124;2023-05-20T08:48:18;4.18;;;1.63;;
45694;SDS011;31408;45.468;9.124;2023-05-20T08:50:49;5.25;;;1.50;;
45694;SDS011;31408;45.468;9.124;2023-05-20T08:53:15;2.47;;;1.80;;
45694;SDS011;31408;45.468;9.124;2023-05-20T08:55:58;4.32;;;2.17;;
45694;SDS011;31408;45.468;9.124;2023-05-20T08:58:24;2.60;;;1.70;;
45694;SDS011;31408;45.468;9.124;2023-05-20T09:00:50;2.00;;;1.73;;
45694;SDS011;31408;45.468;9.124;2023-05-20T09:03:17;1.50;;;1.33;;
45694;SDS011;31408;45.468;9.124;2023-05-20T09:05:44;2.65;;;1.88;;
45694;SDS011;31408;45.468;9.124;2023-05-20T09:08:10;2.22;;;1.92;;
45694;SDS011;31408;45.468;9.124;2023-05-20T09:10:36;4.75;;;2.08;;
45694;SDS011;31408;45.468;9.124;2023-05-20T09:13:02;2.53;;;1.52;;
45694;SDS011;31408;45.468;9.124;2023-05-20T09:15:32;2.58;;;1.92;;
45694;SDS011;31408;45.468;9.124;2023-05-20T09:18:02;2.65;;;1.83;;
45694;SDS011;31408;45.468;9.124;2023-05-20T09:20:28;5.82;;;2.20;;
45694;SDS011;31408;45.468;9.124;2023-05-20T09:22:59;2.83;;;1.77;;
45694;SDS011;31408;45.468;9.124;2023-05-20T09:25:25;3.15;;;1.88;;
45694;SDS011;31408;45.468;9.124;2023-05-20T09:27:52;4.90;;;2.03;;
45694;SDS011;31408;45.468;9.124;2023-05-20T09:30:18;3.45;;;2.50;;
45694;SDS011;31408;45.468;9.124;2023-05-20T09:32:59;4.72;;;1.92;;
45694;SDS011;31408;45.468;9.124;2023-05-20T09:35:26;4.13;;;2.05;;
45694;SDS011;31408;45.468;9.124;2023-05-20T09:37:53;4.60;;;2.83;;
45694;SDS011;31408;45.468;9.124;2023-05-20T09:40:23;4.10;;;2.95;;
45694;SDS011;31408;45.468;9.124;2023-05-20T09:43:04;5.60;;;3.30;;
45694;SDS011;31408;45.468;9.124;2023-05-20T09:45:35;5.72;;;3.85;;
45694;SDS011;31408;45.468;9.124;2023-05-20T09:48:01;6.28;;;3.40;;
45694;SDS011;31408;45.468;9.124;2023-05-20T09:50:27;5.70;;;3.13;;
45694;SDS011;31408;45.468;9.124;2023-05-20T09:52:53;8.02;;;3.30;;
45694;SDS011;31408;45.468;9.124;2023-05-20T09:55:20;4.22;;;2.83;;
45694;SDS011;31408;45.468;9.124;2023-05-20T09:57:48;7.18;;;3.35;;
45694;SDS011;31408;45.468;9.124;2023-05-20T10:00:14;7.72;;;2.88;;
45694;SDS011;31408;45.468;9.124;2023-05-20T10:02:45;5.30;;;3.08;;
45694;SDS011;31408;45.468;9.124;2023-05-20T10:05:19;6.00;;;3.30;;
45694;SDS011;31408;45.468;9.124;2023-05-20T10:07:52;5.18;;;3.05;;
45694;SDS011;31408;45.468;9.124;2023-05-20T10:18:28;3.40;;;2.05;;
45694;SDS011;31408;45.468;9.124;2023-05-20T10:21:21;5.15;;;2.58;;
45694;SDS011;31408;45.468;9.124;2023-05-20T10:23:51;3.22;;;2.25;;
45694;SDS011;31408;45.468;9.124;2023-05-20T10:26:16;4.80;;;2.08;;
45694;SDS011;31408;45.468;9.124;2023-05-20T10:28:42;5.00;;;2.50;;
45694;SDS011;31408;45.468;9.124;2023-05-20T10:33:58;12.80;;;2.85;;
45694;SDS011;31408;45.468;9.124;2023-05-20T10:36:27;1.98;;;1.77;;
45694;SDS011;31408;45.468;9.124;2023-05-20T10:38:53;3.33;;;1.85;;
45694;SDS011;31408;45.468;9.124;2023-05-20T10:41:20;5.32;;;2.72;;
45694;SDS011;31408;45.468;9.124;2023-05-20T10:43:57;7.88;;;3.78;;
45694;SDS011;31408;45.468;9.124;2023-05-20T10:46:23;3.78;;;3.38;;
45694;SDS011;31408;45.468;9.124;2023-05-20T10:48:48;3.55;;;2.88;;
45694;SDS011;31408;45.468;9.124;2023-05-20T10:51:23;8.70;;;3.90;;
45694;SDS011;31408;45.468;9.124;2023-05-20T10:53:53;8.02;;;4.28;;
45694;SDS011;31408;45.468;9.124;2023-05-20T10:56:20;8.80;;;4.32;;
45694;SDS011;31408;45.468;9.124;2023-05-20T10:58:45;7.22;;;3.88;;
45694;SDS011;31408;45.468;9.124;2023-05-20T11:01:11;8.73;;;4.05;;
45694;SDS011;31408;45.468;9.124;2023-05-20T11:03:39;6.13;;;3.78;;
45694;SDS011;31408;45.468;9.124;2023-05-20T11:06:11;7.75;;;4.47;;
45694;SDS011;31408;45.468;9.124;2023-05-20T11:08:36;6.13;;;3.80;;
45694;SDS011;31408;45.468;9.124;2023-05-20T11:11:02;16.58;;;5.05;;
45694;SDS011;31408;45.468;9.124;2023-05-20T11:13:27;6.57;;;3.58;;
45694;SDS011;31408;45.468;9.124;2023-05-20T11:15:53;6.97;;;3.90;;
45694;SDS011;31408;45.468;9.124;2023-05-20T11:18:18;6.28;;;3.47;;
45694;SDS011;31408;45.468;9.124;2023-05-20T11:20:44;6.18;;;3.47;;
45694;SDS011;31408;45.468;9.124;2023-05-20T11:23:15;6.55;;;3.20;;
45694;SDS011;31408;45.468;9.124;2023-05-20T11:25:41;10.10;;;3.78;;
45694;SDS011;31408;45.468;9.124;2023-05-20T11:28:12;5.28;;;3.20;;
45694;SDS011;31408;45.468;9.124;2023-05-20T11:30:41;5.32;;;2.72;;
45694;SDS011;31408;45.468;9.124;2023-05-20T11:33:06;4.03;;;2.50;;
45694;SDS011;31408;45.468;9.124;2023-05-20T11:35:35;3.25;;;2.63;;
45694;SDS011;31408;45.468;9.124;2023-05-20T11:38:01;3.70;;;2.65;;
45694;SDS011;31408;45.468;9.124;2023-05-20T11:40:27;4.78;;;1.98;;
45694;SDS011;31408;45.468;9.124;2023-05-20T11:43:03;4.82;;;2.08;;
45694;SDS011;31408;45.468;9.124;2023-05-20T11:45:38;4.05;;;2.35;;
45694;SDS011;31408;45.468;9.124;2023-05-20T11:48:04;5.75;;;2.97;;
45694;SDS011;31408;45.468;9.124;2023-05-20T11:50:34;6.80;;;2.80;;
45694;SDS011;31408;45.468;9.124;2023-05-20T11:53:01;3.22;;;2.30;;
45694;SDS011;31408;45.468;9.124;2023-05-20T11:55:27;4.07;;;3.13;;
45694;SDS011;31408;45.468;9.124;2023-05-20T11:57:53;4.25;;;2.17;;
45694;SDS011;31408;45.468;9.124;2023-05-20T12:00:18;5.25;;;2.95;;
45694;SDS011;31408;45.468;9.124;2023-05-20T12:02:44;4.63;;;2.50;;
45694;SDS011;31408;45.468;9.124;2023-05-20T12:05:10;6.35;;;3.08;;
45694;SDS011;31408;45.468;9.124;2023-05-20T12:07:35;7.65;;;3.22;;
45694;SDS011;31408;45.468;9.124;2023-05-20T12:10:01;5.68;;;3.03;;
45694;SDS011;31408;45.468;9.124;2023-05-20T12:12:27;3.00;;;2.30;;
45694;SDS011;31408;45.468;9.124;2023-05-20T12:14:52;4.65;;;2.72;;
45694;SDS011;31408;45.468;9.124;2023-05-20T12:17:18;4.50;;;2.92;;
45694;SDS011;31408;45.468;9.124;2023-05-20T12:19:43;6.53;;;2.85;;
45694;SDS011;31408;45.468;9.124;2023-05-20T12:22:09;3.97;;;2.75;;
45694;SDS011;31408;45.468;9.124;2023-05-20T12:24:34;5.53;;;3.08;;
45694;SDS011;31408;45.468;9.124;2023-05-20T12:27:00;9.55;;;3.28;;
45694;SDS011;31408;45.468;9.124;2023-05-20T12:29:27;6.07;;;3.40;;
45694;SDS011;31408;45.468;9.124;2023-05-20T12:31:53;5.88;;;2.97;;
45694;SDS011;31408;45.468;9.124;2023-05-20T12:34:18;5.15;;;3.03;;
45694;SDS011;31408;45.468;9.124;2023-05-20T12:36:43;6.78;;;3.30;;
45694;SDS011;31408;45.468;9.124;2023-05-20T12:39:09;4.55;;;2.85;;
45694;SDS011;31408;45.468;9.124;2023-05-20T12:41:35;5.75;;;2.55;;
45694;SDS011;31408;45.468;9.124;2023-05-20T12:44:00;5.93;;;3.28;;
45694;SDS011;31408;45.468;9.124;2023-05-20T12:46:26;4.75;;;3.22;;
45694;SDS011;31408;45.468;9.124;2023-05-20T12:48:51;7.53;;;3.95;;
45694;SDS011;31408;45.468;9.124;2023-05-20T12:51:17;4.72;;;2.70;;
45694;SDS011;31408;45.468;9.124;2023-05-20T12:53:44;5.85;;;3.00;;
45694;SDS011;31408;45.468;9.124;2023-05-20T12:56:12;4.03;;;2.55;;
45694;SDS011;31408;45.468;9.124;2023-05-20T12:58:38;12.93;;;5.47;;
45694;SDS011;31408;45.468;9.124;2023-05-20T13:01:14;10.25;;;3.42;;
45694;SDS011;31408;45.468;9.124;2023-05-20T13:03:39;4.30;;;2.67;;
45694;SDS011;31408;45.468;9.124;2023-05-20T13:06:05;7.32;;;3.22;;
45694;SDS011;31408;45.468;9.124;2023-05-20T13:08:30;5.07;;;3.05;;
45694;SDS011;31408;45.468;9.124;2023-05-20T13:10:56;6.63;;;2.33;;
45694;SDS011;31408;45.468;9.124;2023-05-20T13:13:22;6.20;;;2.08;;
45694;SDS011;31408;45.468;9.124;2023-05-20T13:15:48;3.83;;;2.40;;
45694;SDS011;31408;45.468;9.124;2023-05-20T13:18:13;2.60;;;1.92;;
45694;SDS011;31408;45.468;9.124;2023-05-20T13:20:41;4.35;;;2.35;;
45694;SDS011;31408;45.468;9.124;2023-05-20T13:23:07;2.92;;;2.05;;
45694;SDS011;31408;45.468;9.124;2023-05-20T13:25:33;1.95;;;1.70;;
45694;SDS011;31408;45.468;9.124;2023-05-20T13:27:59;2.15;;;1.40;;
45694;SDS011;31408;45.468;9.124;2023-05-20T13:30:24;3.35;;;2.10;;
45694;SDS011;31408;45.468;9.124;2023-05-20T13:32:50;2.53;;;1.90;;
45694;SDS011;31408;45.468;9.124;2023-05-20T13:35:15;2.47;;;1.65;;
45694;SDS011;31408;45.468;9.124;2023-05-20T13:37:41;2.92;;;1.92;;
45694;SDS011;31408;45.468;9.124;2023-05-20T13:40:07;1.63;;;1.52;;
45694;SDS011;31408;45.468;9.124;2023-05-20T13:42:33;3.33;;;2.00;;
45694;SDS011;31408;45.468;9.124;2023-05-20T13:44:58;4.55;;;1.98;;
45694;SDS011;31408;45.468;9.124;2023-05-20T13:47:24;2.28;;;1.70;;
45694;SDS011;31408;45.468;9.124;2023-05-20T13:49:49;8.52;;;2.10;;
45694;SDS011;31408;45.468;9.124;2023-05-20T13:52:14;4.75;;;1.92;;
45694;SDS011;31408;45.468;9.124;2023-05-20T13:54:40;2.38;;;1.85;;
45694;SDS011;31408;45.468;9.124;2023-05-20T13:57:07;2.75;;;1.70;;
45694;SDS011;31408;45.468;9.124;2023-05-20T13:59:32;2.00;;;1.77;;
45694;SDS011;31408;45.468;9.124;2023-05-20T14:01:58;3.05;;;1.75;;
45694;SDS011;31408;45.468;9.124;2023-05-20T14:04:25;4.35;;;1.80;;
45694;SDS011;31408;45.468;9.124;2023-05-20T14:06:50;3.42;;;2.42;;
45694;SDS011;31408;45.468;9.124;2023-05-20T14:09:16;2.25;;;1.88;;
45694;SDS011;31408;45.468;9.124;2023-05-20T14:11:41;3.67;;;2.17;;
45694;SDS011;31408;45.468;9.124;2023-05-20T14:14:07;2.45;;;1.95;;
45694;SDS011;31408;45.468;9.124;2023-05-20T14:16:32;2.60;;;1.77;;
45694;SDS011;31408;45.468;9.124;2023-05-20T14:18:57;3.13;;;2.13;;
45694;SDS011;31408;45.468;9.124;2023-05-20T14:21:23;7.35;;;2.13;;
45694;SDS011;31408;45.468;9.124;2023-05-20T14:23:48;2.85;;;2.13;;
45694;SDS011;31408;45.468;9.124;2023-05-20T14:26:14;4.82;;;2.30;;
45694;SDS011;31408;45.468;9.124;2023-05-20T14:28:39;3.55;;;2.00;;
45694;SDS011;31408;45.468;9.124;2023-05-20T14:31:05;8.30;;;1.75;;
45694;SDS011;31408;45.468;9.124;2023-05-20T14:33:30;2.53;;;1.75;;
45694;SDS011;31408;45.468;9.124;2023-05-20T14:35:56;7.65;;;2.30;;
45694;SDS011;31408;45.468;9.124;2023-05-20T14:38:22;2.33;;;1.60;;
45694;SDS011;31408;45.468;9.124;2023-05-20T14:40:47;2.60;;;1.92;;
45694;SDS011;31408;45.468;9.124;2023-05-20T14:43:13;2.75;;;1.77;;
45694;SDS011;31408;45.468;9.124;2023-05-20T14:45:38;2.85;;;2.08;;
45694;SDS011;31408;45.468;9.124;2023-05-20T14:48:04;3.22;;;1.95;;
45694;SDS011;31408;45.468;9.124;2023-05-20T14:50:30;3.30;;;1.92;;
45694;SDS011;31408;45.468;9.124;2023-05-20T14:52:56;5.43;;;2.50;;